createdAt,value
2022-08-27T00:01:01.079Z,6.80
2022-08-27T00:03:29.996Z,6.60
2022-08-27T00:05:59.067Z,6.50
2022-08-27T00:08:28.777Z,6.80
2022-08-27T00:10:57.851Z,6.50
2022-08-27T00:13:27.035Z,6.80
2022-08-27T00:15:56.055Z,7.00
2022-08-27T00:18:25.796Z,7.00
2022-08-27T00:20:54.781Z,6.70
2022-08-27T00:23:23.811Z,6.40
2022-08-27T00:25:53.348Z,6.70
2022-08-27T00:28:22.479Z,6.40
2022-08-27T00:30:51.535Z,7.50
2022-08-27T00:33:21.308Z,7.10
2022-08-27T00:35:50.723Z,7.50
2022-08-27T00:38:22.096Z,7.10
2022-08-27T00:40:52.016Z,6.90
2022-08-27T00:43:23.757Z,6.80
2022-08-27T00:45:56.184Z,7.40
2022-08-27T00:48:28.327Z,7.00
2022-08-27T00:50:57.625Z,7.20
2022-08-27T00:53:32.777Z,6.90
2022-08-27T00:56:07.946Z,7.10
2022-08-27T00:58:39.762Z,7.60
2022-08-27T01:01:12.648Z,7.20
2022-08-27T01:03:45.888Z,7.30
2022-08-27T01:06:17.196Z,6.80
2022-08-27T01:08:51.197Z,6.60
2022-08-27T01:11:21.011Z,7.40
2022-08-27T01:14:00.713Z,7.10
2022-08-27T01:16:36.436Z,7.70
2022-08-27T01:19:10.324Z,7.60
2022-08-27T01:21:47.110Z,6.60
2022-08-27T01:24:32.918Z,6.70
2022-08-27T01:27:03.929Z,6.30
2022-08-27T01:29:36.709Z,6.80
2022-08-27T01:32:11.279Z,7.00
2022-08-27T01:34:40.919Z,6.40
2022-08-27T01:37:10.849Z,6.50
2022-08-27T01:39:41.569Z,7.20
2022-08-27T01:42:15.094Z,6.40
2022-08-27T01:44:47.973Z,7.00
2022-08-27T01:47:18.831Z,6.30
2022-08-27T01:49:48.211Z,7.10
2022-08-27T01:52:19.762Z,7.00
2022-08-27T01:54:50.793Z,7.10
2022-08-27T01:57:24.068Z,6.80
2022-08-27T01:59:56.477Z,6.90
2022-08-27T02:02:25.549Z,7.30
2022-08-27T02:04:54.566Z,6.40
2022-08-27T02:07:23.524Z,6.30
2022-08-27T02:09:53.419Z,7.00
2022-08-27T02:12:22.619Z,6.60
2022-08-27T02:14:51.868Z,7.40
2022-08-27T02:17:21.253Z,5.90
2022-08-27T02:19:50.255Z,6.80
2022-08-27T02:22:19.189Z,6.10
2022-08-27T02:24:48.334Z,6.80
2022-08-27T02:27:17.845Z,6.70
2022-08-27T02:29:47.705Z,6.10
2022-08-27T02:32:24.308Z,6.40
2022-08-27T02:35:03.242Z,6.70
2022-08-27T02:37:32.854Z,6.40
2022-08-27T02:40:02.247Z,6.70
2022-08-27T02:42:31.328Z,6.10
2022-08-27T02:45:00.500Z,6.50
2022-08-27T02:47:29.424Z,6.80
2022-08-27T02:49:58.753Z,6.60
2022-08-27T02:52:29.444Z,6.20
2022-08-27T02:54:59.325Z,6.60
2022-08-27T02:57:30.869Z,7.10
2022-08-27T03:00:10.226Z,6.90
2022-08-27T03:02:39.704Z,6.40
2022-08-27T03:05:11.669Z,6.30
2022-08-27T03:07:41.055Z,6.10
2022-08-27T03:10:13.422Z,6.50
2022-08-27T03:12:43.210Z,6.90
2022-08-27T03:15:16.530Z,6.20
2022-08-27T03:18:04.865Z,5.80
2022-08-27T03:20:34.273Z,6.20
2022-08-27T03:23:03.276Z,6.30
2022-08-27T03:25:33.869Z,6.60
2022-08-27T03:28:04.299Z,6.40
2022-08-27T03:30:38.701Z,6.60
2022-08-27T03:33:08.222Z,6.50
2022-08-27T03:35:37.100Z,6.30
2022-08-27T03:38:06.411Z,6.20
2022-08-27T03:40:35.785Z,6.60
2022-08-27T03:43:04.858Z,6.30
2022-08-27T03:45:52.756Z,6.90
2022-08-27T03:48:23.305Z,7.10
2022-08-27T03:50:52.614Z,7.20
2022-08-27T03:53:21.677Z,6.90
2022-08-27T03:55:50.907Z,7.20
2022-08-27T03:58:20.060Z,7.20
2022-08-27T04:00:49.159Z,6.80
2022-08-27T04:03:18.314Z,7.50
2022-08-27T04:05:53.826Z,6.70
2022-08-27T04:08:23.240Z,6.70
2022-08-27T04:10:54.387Z,6.80
2022-08-27T04:13:24.571Z,6.20
2022-08-27T04:15:55.896Z,6.30
2022-08-27T04:18:25.245Z,6.50
2022-08-27T04:20:55.167Z,6.50
2022-08-27T04:23:24.090Z,6.30
2022-08-27T04:25:53.112Z,6.50
2022-08-27T04:28:22.404Z,6.50
2022-08-27T04:30:51.430Z,6.60
2022-08-27T04:33:20.384Z,6.20
2022-08-27T04:35:57.006Z,6.40
2022-08-27T04:38:26.036Z,6.70
2022-08-27T04:41:13.236Z,6.70
2022-08-27T04:43:42.312Z,6.60
2022-08-27T04:46:11.286Z,6.80
2022-08-27T04:48:40.386Z,7.00
2022-08-27T04:51:09.304Z,7.20
2022-08-27T04:53:41.927Z,7.00
2022-08-27T04:56:14.948Z,7.00
2022-08-27T04:58:44.738Z,7.10
2022-08-27T05:01:18.192Z,6.40
2022-08-27T05:03:47.500Z,6.70
2022-08-27T05:06:16.980Z,6.70
2022-08-27T05:08:46.091Z,6.00
2022-08-27T05:11:17.369Z,7.20
2022-08-27T05:13:47.187Z,7.10
2022-08-27T05:16:19.583Z,7.00
2022-08-27T05:18:52.164Z,7.20
2022-08-27T05:21:23.843Z,5.80
2022-08-27T05:23:54.502Z,5.70
2022-08-27T05:26:23.813Z,6.00
2022-08-27T05:28:53.137Z,6.30
2022-08-27T05:31:23.217Z,6.30
2022-08-27T05:33:55.809Z,6.70
2022-08-27T05:36:26.904Z,7.00
2022-08-27T05:38:58.469Z,7.50
2022-08-27T05:41:33.846Z,6.50
2022-08-27T05:44:24.162Z,6.30
2022-08-27T05:46:55.098Z,6.80
2022-08-27T05:49:24.395Z,5.90
2022-08-27T05:51:53.381Z,6.40
2022-08-27T05:54:23.127Z,6.40
2022-08-27T05:56:52.437Z,5.90
2022-08-27T05:59:48.006Z,6.30
2022-08-27T06:02:18.345Z,6.40
2022-08-27T06:04:48.090Z,6.30
2022-08-27T06:07:18.870Z,6.50
2022-08-27T06:09:48.074Z,5.70
2022-08-27T06:12:16.965Z,7.20
2022-08-27T06:14:45.788Z,6.40
2022-08-27T06:17:14.840Z,7.00
2022-08-27T06:19:45.289Z,6.60
2022-08-27T06:22:14.795Z,6.30
2022-08-27T06:24:44.172Z,6.10
2022-08-27T06:27:16.409Z,7.40
2022-08-27T06:29:46.112Z,5.70
2022-08-27T06:32:19.548Z,6.00
2022-08-27T06:34:49.019Z,6.50
2022-08-27T06:37:18.092Z,6.30
2022-08-27T06:39:47.485Z,6.50
2022-08-27T06:42:17.403Z,6.00
2022-08-27T06:44:46.447Z,5.80
2022-08-27T06:47:16.083Z,6.10
2022-08-27T06:49:50.488Z,6.60
2022-08-27T06:52:19.671Z,6.80
2022-08-27T06:54:50.757Z,6.80
2022-08-27T06:57:21.437Z,7.10
2022-08-27T06:59:51.053Z,7.50
2022-08-27T07:02:21.050Z,7.70
2022-08-27T07:04:53.597Z,8.60
2022-08-27T07:07:31.743Z,8.90
2022-08-27T07:10:06.071Z,7.60
2022-08-27T07:12:35.196Z,7.70
2022-08-27T07:15:08.308Z,7.10
2022-08-27T07:17:40.481Z,6.60
2022-08-27T07:20:11.720Z,6.20
2022-08-27T07:22:41.474Z,8.20
2022-08-27T07:25:14.865Z,7.00
2022-08-27T07:27:44.101Z,6.50
2022-08-27T07:30:15.324Z,6.50
2022-08-27T07:32:45.447Z,7.60
2022-08-27T07:35:14.690Z,7.60
2022-08-27T07:37:43.869Z,8.30
2022-08-27T07:40:15.700Z,6.50
2022-08-27T07:43:02.949Z,7.30
2022-08-27T07:45:32.340Z,7.40
2022-08-27T07:48:01.531Z,7.40
2022-08-27T07:50:30.593Z,6.80
2022-08-27T07:52:59.815Z,6.70
2022-08-27T07:55:29.058Z,6.20
2022-08-27T07:57:58.175Z,6.50
2022-08-27T08:00:28.347Z,6.80
2022-08-27T08:02:57.528Z,6.90
2022-08-27T08:05:27.220Z,6.50
2022-08-27T08:07:56.344Z,7.60
2022-08-27T08:10:25.634Z,6.70
2022-08-27T08:12:54.706Z,7.50
2022-08-27T08:15:24.009Z,6.60
2022-08-27T08:17:53.478Z,5.50
2022-08-27T08:20:35.936Z,5.40
2022-08-27T08:23:11.993Z,5.20
2022-08-27T08:25:41.977Z,5.60
2022-08-27T08:28:11.346Z,6.00
2022-08-27T08:30:43.520Z,5.10
2022-08-27T08:33:14.031Z,5.50
2022-08-27T08:35:43.281Z,5.30
2022-08-27T08:38:12.430Z,4.90
2022-08-27T08:40:45.411Z,5.20
2022-08-27T08:43:29.093Z,6.20
2022-08-27T08:46:02.539Z,6.10
2022-08-27T08:48:32.520Z,5.60
2022-08-27T08:51:05.840Z,6.00
2022-08-27T08:53:47.088Z,7.00
2022-08-27T08:56:22.974Z,6.10
2022-08-27T08:58:58.569Z,5.90
2022-08-27T09:01:28.834Z,6.50
2022-08-27T09:04:00.195Z,6.70
2022-08-27T09:06:39.049Z,6.60
2022-08-27T09:09:19.898Z,6.40
2022-08-27T09:11:58.804Z,5.90
2022-08-27T09:14:36.584Z,6.50
2022-08-27T09:17:11.452Z,5.80
2022-08-27T09:19:42.473Z,5.80
2022-08-27T09:22:20.625Z,6.90
2022-08-27T09:25:00.422Z,5.40
2022-08-27T09:27:30.360Z,5.80
2022-08-27T09:30:04.780Z,6.40
2022-08-27T09:32:35.059Z,6.50
2022-08-27T09:35:07.831Z,6.70
2022-08-27T09:37:44.712Z,5.90
2022-08-27T09:40:22.667Z,5.80
2022-08-27T09:42:54.602Z,6.30
2022-08-27T09:45:27.012Z,6.30
2022-08-27T09:48:04.150Z,5.70
2022-08-27T09:50:43.779Z,5.90
2022-08-27T09:53:21.329Z,5.50
2022-08-27T09:55:54.301Z,6.60
2022-08-27T09:58:28.310Z,5.80
2022-08-27T10:01:04.595Z,6.10
2022-08-27T10:03:34.367Z,6.00
2022-08-27T10:06:03.577Z,6.20
2022-08-27T10:08:41.877Z,5.50
2022-08-27T10:11:19.075Z,6.30
2022-08-27T10:13:56.946Z,5.30
2022-08-27T10:16:50.531Z,5.50
2022-08-27T10:19:35.210Z,4.70
2022-08-27T10:22:12.767Z,5.10
2022-08-27T10:27:24.250Z,5.20
2022-08-27T10:30:02.517Z,5.80
2022-08-27T10:32:55.017Z,5.70
2022-08-27T10:35:28.698Z,5.30
2022-08-27T10:38:11.103Z,6.20
2022-08-27T10:40:49.029Z,5.50
2022-08-27T10:43:45.201Z,5.60
2022-08-27T10:46:34.750Z,5.60
2022-08-27T10:49:13.565Z,5.70
2022-08-27T10:51:56.005Z,5.40
2022-08-27T10:54:32.595Z,6.20
2022-08-27T10:57:31.403Z,6.70
2022-08-27T11:00:07.235Z,5.50
2022-08-27T11:02:42.518Z,5.20
2022-08-27T11:05:17.861Z,4.90
2022-08-27T11:07:52.193Z,6.60
2022-08-27T11:10:26.628Z,5.90
2022-08-27T11:12:59.533Z,5.50
2022-08-27T11:15:33.332Z,5.90
2022-08-27T11:18:08.272Z,6.70
2022-08-27T11:20:45.472Z,5.90
2022-08-27T11:23:17.491Z,5.10
2022-08-27T11:25:51.397Z,5.30
2022-08-27T11:28:30.151Z,6.20
2022-08-27T11:31:07.642Z,6.30
2022-08-27T11:33:46.151Z,5.40
2022-08-27T11:36:39.230Z,5.20
2022-08-27T11:39:19.948Z,5.00
2022-08-27T11:42:02.230Z,5.50
2022-08-27T11:44:31.538Z,5.60
2022-08-27T11:47:19.207Z,6.40
2022-08-27T11:49:51.066Z,6.70
2022-08-27T11:52:26.779Z,5.70
2022-08-27T11:55:14.131Z,6.10
2022-08-27T11:57:44.525Z,5.40
2022-08-27T12:00:19.607Z,6.50
2022-08-27T12:02:58.623Z,6.90
2022-08-27T12:05:37.974Z,6.90
2022-08-27T12:08:28.580Z,6.20
2022-08-27T12:11:11.849Z,6.00
2022-08-27T12:13:44.859Z,6.10
2022-08-27T12:16:31.286Z,6.50
2022-08-27T12:19:10.687Z,6.20
2022-08-27T12:21:57.241Z,5.70
2022-08-27T12:24:48.654Z,6.00
2022-08-27T12:27:34.549Z,6.50
2022-08-27T12:30:20.626Z,6.50
2022-08-27T12:32:52.015Z,5.90
2022-08-27T12:35:28.086Z,6.30
2022-08-27T12:38:11.960Z,6.60
2022-08-27T12:40:45.744Z,5.80
2022-08-27T12:43:19.200Z,6.50
2022-08-27T12:45:51.117Z,7.60
2022-08-27T12:48:24.214Z,5.90
2022-08-27T12:50:55.496Z,6.60
2022-08-27T12:53:45.156Z,6.40
2022-08-27T12:56:39.742Z,5.60
2022-08-27T12:59:28.595Z,6.60
2022-08-27T13:02:09.447Z,6.30
2022-08-27T13:04:42.486Z,5.70
2022-08-27T13:07:11.623Z,7.00
2022-08-27T13:09:42.988Z,7.00
2022-08-27T13:12:18.857Z,5.90
2022-08-27T13:14:49.633Z,7.00
2022-08-27T13:17:39.477Z,6.90
2022-08-27T13:20:16.091Z,6.00
2022-08-27T13:22:46.625Z,6.40
2022-08-27T13:25:24.948Z,6.10
2022-08-27T13:27:58.854Z,6.10
2022-08-27T13:30:36.189Z,5.80
2022-08-27T13:33:07.744Z,5.50
2022-08-27T13:35:37.630Z,6.40
2022-08-27T13:38:06.612Z,6.10
2022-08-27T13:40:50.661Z,5.90
2022-08-27T13:43:23.268Z,6.00
2022-08-27T13:45:55.025Z,5.80
2022-08-27T13:48:24.623Z,6.40
2022-08-27T13:50:57.112Z,6.10
2022-08-27T13:53:48.777Z,6.50
2022-08-27T13:56:31.565Z,5.60
2022-08-27T13:59:12.475Z,6.20
2022-08-27T14:01:55.130Z,6.00
2022-08-27T14:04:28.268Z,6.40
2022-08-27T14:06:57.347Z,6.10
2022-08-27T14:09:29.418Z,5.40
2022-08-27T14:12:07.576Z,5.50
2022-08-27T14:14:39.946Z,5.90
2022-08-27T14:17:26.792Z,5.90
2022-08-27T14:20:02.721Z,5.90
2022-08-27T14:22:33.788Z,5.70
2022-08-27T14:25:03.262Z,5.70
2022-08-27T14:27:32.257Z,6.00
2022-08-27T14:30:02.402Z,5.70
2022-08-27T14:32:32.902Z,6.70
2022-08-27T14:35:02.107Z,6.30
2022-08-27T14:37:31.392Z,6.40
2022-08-27T14:40:01.045Z,5.60
2022-08-27T14:42:30.322Z,5.50
2022-08-27T14:45:00.553Z,4.90
2022-08-27T14:47:33.601Z,6.50
2022-08-27T14:50:06.769Z,6.20
2022-08-27T14:52:35.983Z,7.00
2022-08-27T14:55:10.422Z,5.70
2022-08-27T14:57:39.731Z,6.80
2022-08-27T15:00:11.575Z,6.50
2022-08-27T15:02:47.967Z,6.20
2022-08-27T15:05:19.469Z,5.70
2022-08-27T15:07:54.860Z,5.80
2022-08-27T15:10:23.964Z,6.00
2022-08-27T15:12:54.251Z,6.30
2022-08-27T15:15:23.975Z,7.50
2022-08-27T15:17:53.145Z,6.30
2022-08-27T15:20:22.674Z,6.80
2022-08-27T15:22:53.013Z,6.90
2022-08-27T15:25:22.951Z,5.90
2022-08-27T15:27:52.163Z,6.30
2022-08-27T15:30:26.618Z,5.00
2022-08-27T15:32:56.654Z,6.10
2022-08-27T15:35:28.519Z,6.00
2022-08-27T15:37:58.510Z,6.30
2022-08-27T15:40:33.169Z,6.60
2022-08-27T15:43:05.436Z,6.50
2022-08-27T15:45:36.451Z,7.40
2022-08-27T15:48:06.019Z,6.80
2022-08-27T15:50:35.095Z,6.70
2022-08-27T15:53:06.444Z,7.20
2022-08-27T15:55:38.370Z,8.00
2022-08-27T15:58:08.745Z,7.20
2022-08-27T16:00:41.766Z,7.30
2022-08-27T16:03:14.085Z,7.00
2022-08-27T16:05:45.458Z,6.90
2022-08-27T16:08:15.242Z,7.30
2022-08-27T16:10:44.261Z,7.60
2022-08-27T16:13:13.190Z,7.40
2022-08-27T16:15:42.683Z,7.00
2022-08-27T16:18:12.259Z,6.70
2022-08-27T16:20:41.778Z,6.10
2022-08-27T16:23:12.570Z,6.50
2022-08-27T16:25:43.079Z,6.20
2022-08-27T16:28:12.654Z,6.30
2022-08-27T16:30:44.019Z,6.00
2022-08-27T16:33:13.723Z,6.00
2022-08-27T16:35:43.522Z,6.70
2022-08-27T16:38:12.750Z,6.50
2022-08-27T16:40:44.458Z,6.90
2022-08-27T16:43:20.572Z,5.70
2022-08-27T16:45:50.553Z,6.10
2022-08-27T16:48:38.685Z,5.90
2022-08-27T16:51:13.356Z,6.00
2022-08-27T16:53:44.650Z,5.60
2022-08-27T16:56:15.486Z,6.50
2022-08-27T16:58:49.204Z,6.00
2022-08-27T17:01:20.936Z,6.10
2022-08-27T17:04:08.079Z,6.20
2022-08-27T17:06:40.493Z,6.10
2022-08-27T17:09:14.171Z,5.90
2022-08-27T17:11:45.442Z,6.50
2022-08-27T17:14:14.596Z,6.80
2022-08-27T17:16:43.947Z,6.50
2022-08-27T17:19:16.915Z,6.60
2022-08-27T17:21:46.698Z,6.40
2022-08-27T17:24:15.717Z,7.60
2022-08-27T17:26:44.701Z,6.50
2022-08-27T17:29:13.855Z,6.90
2022-08-27T17:31:43.720Z,5.90
2022-08-27T17:34:17.352Z,5.90
2022-08-27T17:36:46.386Z,6.60
2022-08-27T17:39:15.692Z,6.90
2022-08-27T17:41:47.047Z,7.40
2022-08-27T17:44:20.655Z,6.60
2022-08-27T17:46:50.323Z,7.20
2022-08-27T17:49:19.943Z,7.70
2022-08-27T17:51:51.274Z,6.80
2022-08-27T17:54:30.084Z,7.00
2022-08-27T17:56:59.732Z,7.70
2022-08-27T17:59:29.042Z,8.60
2022-08-27T18:01:58.031Z,8.20
2022-08-27T18:04:27.298Z,7.50
2022-08-27T18:06:56.159Z,8.40
2022-08-27T18:09:25.055Z,8.50
2022-08-27T18:11:54.259Z,7.70
2022-08-27T18:14:25.721Z,8.90
2022-08-27T18:16:54.815Z,9.10
2022-08-27T18:19:23.848Z,8.40
2022-08-27T18:21:52.810Z,8.50
2022-08-27T18:24:21.999Z,9.10
2022-08-27T18:26:50.929Z,7.80
2022-08-27T18:29:19.893Z,8.50
2022-08-27T18:31:49.082Z,8.70
2022-08-27T18:34:20.919Z,9.10
2022-08-27T18:36:50.662Z,10.00
2022-08-27T18:39:20.658Z,10.20
2022-08-27T18:41:55.503Z,9.90
2022-08-27T18:44:24.387Z,10.20
2022-08-27T18:46:53.759Z,9.60
2022-08-27T18:49:25.351Z,10.10
2022-08-27T18:51:55.164Z,10.00
2022-08-27T18:54:26.753Z,10.10
2022-08-27T18:56:55.950Z,9.50
2022-08-27T18:59:25.149Z,10.20
2022-08-27T19:01:54.809Z,9.60
2022-08-27T19:04:24.484Z,11.30
2022-08-27T19:06:53.748Z,10.40
2022-08-27T19:09:22.728Z,10.10
2022-08-27T19:11:51.665Z,10.50
2022-08-27T19:14:20.842Z,9.70
2022-08-27T19:16:55.359Z,10.00
2022-08-27T19:19:26.610Z,10.00
2022-08-27T19:21:55.676Z,9.70
2022-08-27T19:24:28.459Z,9.30
2022-08-27T19:26:57.659Z,9.50
2022-08-27T19:29:26.629Z,10.20
2022-08-27T19:31:55.711Z,10.20
2022-08-27T19:34:24.724Z,10.40
2022-08-27T19:36:53.817Z,10.00
2022-08-27T19:39:22.859Z,10.50
2022-08-27T19:41:51.959Z,10.20
2022-08-27T19:44:21.206Z,12.90
2022-08-27T19:46:52.996Z,14.10
2022-08-27T19:49:21.972Z,16.20
2022-08-27T19:51:51.320Z,17.30
2022-08-27T19:54:20.844Z,17.60
2022-08-27T19:56:49.809Z,16.20
2022-08-27T19:59:21.702Z,15.80
2022-08-27T20:01:52.259Z,14.60
2022-08-27T20:04:21.557Z,15.10
2022-08-27T20:06:52.432Z,14.20
2022-08-27T20:09:21.795Z,14.40
2022-08-27T20:11:51.332Z,14.00
2022-08-27T20:14:20.442Z,15.70
2022-08-27T20:16:49.679Z,15.60
2022-08-27T20:19:19.445Z,16.20
2022-08-27T20:21:48.294Z,14.20
2022-08-27T20:24:17.644Z,15.70
2022-08-27T20:26:46.946Z,15.10
2022-08-27T20:29:22.393Z,14.20
2022-08-27T20:32:02.166Z,14.10
2022-08-27T20:34:32.975Z,15.20
2022-08-27T20:37:03.330Z,15.20
2022-08-27T20:39:32.570Z,14.60
2022-08-27T20:42:01.568Z,14.60
2022-08-27T20:44:31.757Z,15.40
2022-08-27T20:47:01.848Z,14.90
2022-08-27T20:49:31.099Z,14.30
2022-08-27T20:52:02.729Z,14.40
2022-08-27T20:54:36.088Z,13.90
2022-08-27T20:57:05.431Z,12.90
2022-08-27T20:59:52.928Z,12.90
2022-08-27T21:02:24.476Z,12.30
2022-08-27T21:04:54.040Z,13.20
2022-08-27T21:07:24.390Z,12.30
2022-08-27T21:09:57.291Z,13.20
2022-08-27T21:12:27.110Z,13.20
2022-08-27T21:14:57.829Z,13.30
2022-08-27T21:17:29.272Z,13.30
2022-08-27T21:19:58.694Z,13.30
2022-08-27T21:22:28.330Z,12.20
2022-08-27T21:24:57.770Z,12.90
2022-08-27T21:27:27.029Z,12.30
2022-08-27T21:29:56.574Z,13.70
2022-08-27T21:32:26.034Z,12.80
2022-08-27T21:34:54.917Z,12.80
2022-08-27T21:37:24.064Z,11.80
2022-08-27T21:39:53.199Z,12.50
2022-08-27T21:42:22.716Z,12.60
2022-08-27T21:44:51.693Z,12.50
2022-08-27T21:47:20.805Z,11.80
2022-08-27T21:49:49.820Z,12.50
2022-08-27T21:52:18.920Z,12.70
2022-08-27T21:54:47.974Z,13.10
2022-08-27T21:57:16.966Z,13.40
2022-08-27T21:59:48.073Z,12.00
2022-08-27T22:02:38.822Z,12.00
2022-08-27T22:05:09.401Z,13.00
2022-08-27T22:07:39.926Z,12.30
2022-08-27T22:10:10.066Z,14.00
2022-08-27T22:12:39.737Z,13.40
2022-08-27T22:15:11.085Z,13.10
2022-08-27T22:17:40.010Z,12.80
2022-08-27T22:20:11.557Z,12.70
2022-08-27T22:22:40.510Z,12.60
2022-08-27T22:25:27.531Z,12.30
2022-08-27T22:27:56.485Z,12.70
2022-08-27T22:30:28.389Z,12.10
2022-08-27T22:32:57.708Z,12.80
2022-08-27T22:35:28.956Z,13.40
2022-08-27T22:37:58.614Z,12.60
2022-08-27T22:40:29.857Z,12.40
2022-08-27T22:43:00.580Z,12.20
2022-08-27T22:45:29.930Z,12.20
2022-08-27T22:47:58.894Z,11.30
2022-08-27T22:50:28.499Z,12.00
2022-08-27T22:52:57.389Z,11.20
2022-08-27T22:55:26.608Z,11.90
2022-08-27T22:57:56.933Z,11.30
2022-08-27T23:00:28.942Z,11.30
2022-08-27T23:02:58.501Z,10.60
2022-08-27T23:05:28.660Z,11.90
2022-08-27T23:08:11.147Z,11.20
2022-08-27T23:10:41.492Z,11.70
2022-08-27T23:13:11.052Z,11.50
2022-08-27T23:15:43.301Z,11.60
2022-08-27T23:18:12.438Z,11.40
2022-08-27T23:20:41.694Z,12.20
2022-08-27T23:23:10.877Z,11.40
2022-08-27T23:25:59.167Z,11.50
2022-08-27T23:28:29.021Z,11.70
2022-08-27T23:30:58.673Z,11.30
2022-08-27T23:33:28.508Z,11.10
2022-08-27T23:35:57.624Z,11.30
2022-08-27T23:38:26.521Z,12.00
2022-08-27T23:40:57.212Z,10.50
2022-08-27T23:43:26.309Z,11.80
2022-08-27T23:45:55.799Z,11.20
2022-08-27T23:48:25.125Z,10.50
2022-08-27T23:50:54.036Z,10.80
2022-08-27T23:53:24.211Z,11.70
2022-08-27T23:55:56.019Z,10.10
2022-08-27T23:58:25.057Z,10.70
